sensor_id;sensor_type;location;lat;lon;timestamp;P1;durP1;ratioP1;P2;durP2;ratioP2
24644;SDS011;12780;45.502;9.146;2022-12-05T00:03:51;35.42;;;19.27;;
24644;SDS011;12780;45.502;9.146;2022-12-05T00:06:19;37.67;;;20.38;;
24644;SDS011;12780;45.502;9.146;2022-12-05T00:08:46;36.13;;;19.13;;
24644;SDS011;12780;45.502;9.146;2022-12-05T00:11:14;36.20;;;18.80;;
24644;SDS011;12780;45.502;9.146;2022-12-05T00:13:44;34.42;;;19.20;;
24644;SDS011;12780;45.502;9.146;2022-12-05T00:16:11;31.70;;;18.58;;
24644;SDS011;12780;45.502;9.146;2022-12-05T00:18:38;35.80;;;19.65;;
24644;SDS011;12780;45.502;9.146;2022-12-05T00:21:05;32.28;;;18.80;;
24644;SDS011;12780;45.502;9.146;2022-12-05T00:23:32;31.67;;;17.80;;
24644;SDS011;12780;45.502;9.146;2022-12-05T00:26:01;29.48;;;18.13;;
24644;SDS011;12780;45.502;9.146;2022-12-05T00:28:27;27.60;;;16.83;;
24644;SDS011;12780;45.502;9.146;2022-12-05T00:30:54;29.35;;;16.70;;
24644;SDS011;12780;45.502;9.146;2022-12-05T00:33:20;29.13;;;16.50;;
24644;SDS011;12780;45.502;9.146;2022-12-05T00:35:45;29.70;;;17.00;;
24644;SDS011;12780;45.502;9.146;2022-12-05T00:38:11;30.92;;;16.98;;
24644;SDS011;12780;45.502;9.146;2022-12-05T00:40:36;30.98;;;16.55;;
24644;SDS011;12780;45.502;9.146;2022-12-05T00:43:02;29.73;;;16.98;;
24644;SDS011;12780;45.502;9.146;2022-12-05T00:45:27;28.83;;;16.58;;
24644;SDS011;12780;45.502;9.146;2022-12-05T00:47:53;31.88;;;17.30;;
24644;SDS011;12780;45.502;9.146;2022-12-05T00:50:18;29.05;;;16.92;;
24644;SDS011;12780;45.502;9.146;2022-12-05T00:52:44;28.33;;;16.27;;
24644;SDS011;12780;45.502;9.146;2022-12-05T00:55:10;27.42;;;15.88;;
24644;SDS011;12780;45.502;9.146;2022-12-05T00:57:35;30.23;;;16.63;;
24644;SDS011;12780;45.502;9.146;2022-12-05T01:00:01;31.15;;;16.73;;
24644;SDS011;12780;45.502;9.146;2022-12-05T01:02:27;29.20;;;17.70;;
24644;SDS011;12780;45.502;9.146;2022-12-05T01:04:54;32.22;;;17.38;;
24644;SDS011;12780;45.502;9.146;2022-12-05T01:07:19;25.52;;;15.27;;
24644;SDS011;12780;45.502;9.146;2022-12-05T01:09:45;30.13;;;16.67;;
24644;SDS011;12780;45.502;9.146;2022-12-05T01:12:11;28.90;;;16.27;;
24644;SDS011;12780;45.502;9.146;2022-12-05T01:14:36;28.83;;;16.58;;
24644;SDS011;12780;45.502;9.146;2022-12-05T01:17:02;25.65;;;15.20;;
24644;SDS011;12780;45.502;9.146;2022-12-05T01:19:28;25.85;;;15.95;;
24644;SDS011;12780;45.502;9.146;2022-12-05T01:21:55;26.80;;;15.20;;
24644;SDS011;12780;45.502;9.146;2022-12-05T01:24:21;23.13;;;14.15;;
24644;SDS011;12780;45.502;9.146;2022-12-05T01:26:48;22.23;;;13.93;;
24644;SDS011;12780;45.502;9.146;2022-12-05T01:29:15;25.48;;;15.05;;
24644;SDS011;12780;45.502;9.146;2022-12-05T01:31:43;22.20;;;14.27;;
24644;SDS011;12780;45.502;9.146;2022-12-05T01:34:09;24.92;;;14.93;;
24644;SDS011;12780;45.502;9.146;2022-12-05T01:36:37;25.13;;;15.25;;
24644;SDS011;12780;45.502;9.146;2022-12-05T01:39:04;26.60;;;14.70;;
24644;SDS011;12780;45.502;9.146;2022-12-05T01:41:31;22.67;;;14.00;;
24644;SDS011;12780;45.502;9.146;2022-12-05T01:46:25;24.52;;;14.45;;
24644;SDS011;12780;45.502;9.146;2022-12-05T01:48:53;25.83;;;14.43;;
24644;SDS011;12780;45.502;9.146;2022-12-05T01:51:46;25.15;;;15.35;;
24644;SDS011;12780;45.502;9.146;2022-12-05T01:54:14;22.98;;;14.43;;
24644;SDS011;12780;45.502;9.146;2022-12-05T01:56:43;24.30;;;14.63;;
24644;SDS011;12780;45.502;9.146;2022-12-05T01:59:12;22.80;;;14.27;;
24644;SDS011;12780;45.502;9.146;2022-12-05T02:01:38;22.30;;;13.45;;
24644;SDS011;12780;45.502;9.146;2022-12-05T02:04:05;22.75;;;14.20;;
24644;SDS011;12780;45.502;9.146;2022-12-05T02:06:31;26.33;;;16.02;;
24644;SDS011;12780;45.502;9.146;2022-12-05T02:08:57;24.13;;;14.35;;
24644;SDS011;12780;45.502;9.146;2022-12-05T02:11:23;24.63;;;14.40;;
24644;SDS011;12780;45.502;9.146;2022-12-05T02:13:55;23.42;;;14.20;;
24644;SDS011;12780;45.502;9.146;2022-12-05T02:16:44;23.37;;;14.57;;
24644;SDS011;12780;45.502;9.146;2022-12-05T02:22:19;22.77;;;13.88;;
24644;SDS011;12780;45.502;9.146;2022-12-05T02:25:15;25.30;;;14.95;;
24644;SDS011;12780;45.502;9.146;2022-12-05T02:30:42;25.25;;;14.82;;
24644;SDS011;12780;45.502;9.146;2022-12-05T02:33:20;23.70;;;14.80;;
24644;SDS011;12780;45.502;9.146;2022-12-05T02:36:03;24.95;;;15.23;;
24644;SDS011;12780;45.502;9.146;2022-12-05T02:38:58;24.75;;;14.85;;
24644;SDS011;12780;45.502;9.146;2022-12-05T02:44:14;24.98;;;15.52;;
24644;SDS011;12780;45.502;9.146;2022-12-05T02:49:15;24.23;;;14.35;;
24644;SDS011;12780;45.502;9.146;2022-12-05T02:51:46;22.88;;;14.55;;
24644;SDS011;12780;45.502;9.146;2022-12-05T02:54:17;21.92;;;13.75;;
24644;SDS011;12780;45.502;9.146;2022-12-05T02:56:46;24.27;;;12.82;;
24644;SDS011;12780;45.502;9.146;2022-12-05T02:59:14;22.75;;;13.07;;
24644;SDS011;12780;45.502;9.146;2022-12-05T03:01:42;22.00;;;12.98;;
24644;SDS011;12780;45.502;9.146;2022-12-05T03:04:09;20.73;;;12.35;;
24644;SDS011;12780;45.502;9.146;2022-12-05T03:09:41;24.23;;;13.75;;
24644;SDS011;12780;45.502;9.146;2022-12-05T03:12:17;20.73;;;13.05;;
24644;SDS011;12780;45.502;9.146;2022-12-05T03:14:46;20.52;;;12.15;;
24644;SDS011;12780;45.502;9.146;2022-12-05T03:17:22;20.83;;;11.95;;
24644;SDS011;12780;45.502;9.146;2022-12-05T03:20:10;19.55;;;12.02;;
24644;SDS011;12780;45.502;9.146;2022-12-05T03:22:46;17.52;;;10.77;;
24644;SDS011;12780;45.502;9.146;2022-12-05T03:25:12;19.90;;;11.65;;
24644;SDS011;12780;45.502;9.146;2022-12-05T03:30:16;17.25;;;10.98;;
24644;SDS011;12780;45.502;9.146;2022-12-05T03:32:48;19.65;;;11.85;;
24644;SDS011;12780;45.502;9.146;2022-12-05T03:35:23;21.38;;;12.57;;
24644;SDS011;12780;45.502;9.146;2022-12-05T03:38:06;19.33;;;12.40;;
24644;SDS011;12780;45.502;9.146;2022-12-05T03:45:59;24.98;;;14.45;;
24644;SDS011;12780;45.502;9.146;2022-12-05T03:51:01;24.90;;;13.77;;
24644;SDS011;12780;45.502;9.146;2022-12-05T03:53:52;21.35;;;13.13;;
24644;SDS011;12780;45.502;9.146;2022-12-05T03:56:21;23.73;;;13.60;;
24644;SDS011;12780;45.502;9.146;2022-12-05T03:59:00;23.83;;;13.18;;
24644;SDS011;12780;45.502;9.146;2022-12-05T04:01:30;22.38;;;12.38;;
24644;SDS011;12780;45.502;9.146;2022-12-05T04:03:59;20.17;;;12.23;;
24644;SDS011;12780;45.502;9.146;2022-12-05T04:06:33;20.00;;;11.25;;
24644;SDS011;12780;45.502;9.146;2022-12-05T04:09:02;19.33;;;10.55;;
24644;SDS011;12780;45.502;9.146;2022-12-05T04:11:50;18.73;;;11.05;;
24644;SDS011;12780;45.502;9.146;2022-12-05T04:14:34;18.67;;;11.07;;
24644;SDS011;12780;45.502;9.146;2022-12-05T04:17:05;16.67;;;10.27;;
24644;SDS011;12780;45.502;9.146;2022-12-05T04:19:49;16.65;;;10.18;;
24644;SDS011;12780;45.502;9.146;2022-12-05T04:22:55;19.05;;;11.00;;
24644;SDS011;12780;45.502;9.146;2022-12-05T04:25:21;19.42;;;11.25;;
24644;SDS011;12780;45.502;9.146;2022-12-05T04:31:04;19.67;;;11.80;;
24644;SDS011;12780;45.502;9.146;2022-12-05T04:38:40;16.45;;;11.02;;
24644;SDS011;12780;45.502;9.146;2022-12-05T04:41:36;18.42;;;11.13;;
24644;SDS011;12780;45.502;9.146;2022-12-05T04:44:06;18.13;;;10.95;;
24644;SDS011;12780;45.502;9.146;2022-12-05T04:46:34;17.67;;;11.27;;
24644;SDS011;12780;45.502;9.146;2022-12-05T04:49:05;18.48;;;11.73;;
24644;SDS011;12780;45.502;9.146;2022-12-05T04:51:33;17.70;;;10.98;;
24644;SDS011;12780;45.502;9.146;2022-12-05T04:54:03;16.95;;;11.60;;
24644;SDS011;12780;45.502;9.146;2022-12-05T04:56:38;17.02;;;10.52;;
24644;SDS011;12780;45.502;9.146;2022-12-05T04:59:06;18.80;;;11.52;;
24644;SDS011;12780;45.502;9.146;2022-12-05T05:01:44;18.33;;;11.55;;
24644;SDS011;12780;45.502;9.146;2022-12-05T05:04:21;17.40;;;11.00;;
24644;SDS011;12780;45.502;9.146;2022-12-05T05:06:53;17.77;;;10.40;;
24644;SDS011;12780;45.502;9.146;2022-12-05T05:09:19;16.50;;;10.68;;
24644;SDS011;12780;45.502;9.146;2022-12-05T05:11:45;16.35;;;10.23;;
24644;SDS011;12780;45.502;9.146;2022-12-05T05:14:10;17.00;;;10.50;;
24644;SDS011;12780;45.502;9.146;2022-12-05T05:16:39;15.95;;;10.13;;
24644;SDS011;12780;45.502;9.146;2022-12-05T05:19:06;16.00;;;10.05;;
24644;SDS011;12780;45.502;9.146;2022-12-05T05:21:34;18.67;;;10.73;;
24644;SDS011;12780;45.502;9.146;2022-12-05T05:24:05;15.98;;;10.38;;
24644;SDS011;12780;45.502;9.146;2022-12-05T05:26:33;18.95;;;11.10;;
24644;SDS011;12780;45.502;9.146;2022-12-05T05:29:01;19.42;;;11.57;;
24644;SDS011;12780;45.502;9.146;2022-12-05T05:31:27;19.52;;;11.52;;
24644;SDS011;12780;45.502;9.146;2022-12-05T05:33:54;19.73;;;11.90;;
24644;SDS011;12780;45.502;9.146;2022-12-05T05:36:21;20.50;;;12.25;;
24644;SDS011;12780;45.502;9.146;2022-12-05T05:38:49;24.50;;;13.93;;
24644;SDS011;12780;45.502;9.146;2022-12-05T05:41:17;21.48;;;13.50;;
24644;SDS011;12780;45.502;9.146;2022-12-05T05:43:47;24.85;;;14.02;;
24644;SDS011;12780;45.502;9.146;2022-12-05T05:46:14;24.38;;;14.77;;
24644;SDS011;12780;45.502;9.146;2022-12-05T05:48:41;21.25;;;13.75;;
24644;SDS011;12780;45.502;9.146;2022-12-05T05:51:08;25.98;;;14.45;;
24644;SDS011;12780;45.502;9.146;2022-12-05T05:53:35;28.48;;;15.10;;
24644;SDS011;12780;45.502;9.146;2022-12-05T05:56:02;27.05;;;15.43;;
24644;SDS011;12780;45.502;9.146;2022-12-05T05:58:29;27.10;;;14.88;;
24644;SDS011;12780;45.502;9.146;2022-12-05T06:00:54;27.70;;;14.82;;
24644;SDS011;12780;45.502;9.146;2022-12-05T06:03:36;26.17;;;15.25;;
24644;SDS011;12780;45.502;9.146;2022-12-05T06:06:04;27.27;;;15.88;;
24644;SDS011;12780;45.502;9.146;2022-12-05T06:08:32;27.88;;;16.13;;
24644;SDS011;12780;45.502;9.146;2022-12-05T06:10:59;27.80;;;15.93;;
24644;SDS011;12780;45.502;9.146;2022-12-05T06:13:29;28.38;;;16.70;;
24644;SDS011;12780;45.502;9.146;2022-12-05T06:15:55;29.90;;;16.15;;
24644;SDS011;12780;45.502;9.146;2022-12-05T06:18:20;30.80;;;16.80;;
24644;SDS011;12780;45.502;9.146;2022-12-05T06:20:52;31.63;;;17.23;;
24644;SDS011;12780;45.502;9.146;2022-12-05T06:23:19;32.42;;;16.90;;
24644;SDS011;12780;45.502;9.146;2022-12-05T06:25:49;30.33;;;16.98;;
24644;SDS011;12780;45.502;9.146;2022-12-05T06:28:16;28.65;;;17.02;;
24644;SDS011;12780;45.502;9.146;2022-12-05T06:30:43;26.90;;;16.33;;
24644;SDS011;12780;45.502;9.146;2022-12-05T06:33:08;31.20;;;16.75;;
24644;SDS011;12780;45.502;9.146;2022-12-05T06:35:34;26.02;;;16.10;;
24644;SDS011;12780;45.502;9.146;2022-12-05T06:38:00;26.92;;;16.35;;
24644;SDS011;12780;45.502;9.146;2022-12-05T06:40:26;26.90;;;15.93;;
24644;SDS011;12780;45.502;9.146;2022-12-05T06:42:51;26.00;;;16.15;;
24644;SDS011;12780;45.502;9.146;2022-12-05T06:45:17;25.65;;;16.00;;
24644;SDS011;12780;45.502;9.146;2022-12-05T06:47:42;30.05;;;17.42;;
24644;SDS011;12780;45.502;9.146;2022-12-05T06:50:08;32.35;;;16.98;;
24644;SDS011;12780;45.502;9.146;2022-12-05T06:52:34;27.67;;;16.65;;
24644;SDS011;12780;45.502;9.146;2022-12-05T06:55:00;27.50;;;16.73;;
24644;SDS011;12780;45.502;9.146;2022-12-05T06:57:28;27.63;;;15.82;;
24644;SDS011;12780;45.502;9.146;2022-12-05T06:59:54;32.22;;;17.38;;
24644;SDS011;12780;45.502;9.146;2022-12-05T07:02:40;33.67;;;15.90;;
24644;SDS011;12780;45.502;9.146;2022-12-05T07:05:06;30.30;;;16.70;;
24644;SDS011;12780;45.502;9.146;2022-12-05T07:07:33;28.98;;;15.70;;
24644;SDS011;12780;45.502;9.146;2022-12-05T07:09:58;31.33;;;15.93;;
24644;SDS011;12780;45.502;9.146;2022-12-05T07:12:24;31.00;;;16.48;;
24644;SDS011;12780;45.502;9.146;2022-12-05T07:14:50;28.88;;;16.33;;
24644;SDS011;12780;45.502;9.146;2022-12-05T07:17:19;32.35;;;16.80;;
24644;SDS011;12780;45.502;9.146;2022-12-05T07:19:46;30.40;;;16.42;;
24644;SDS011;12780;45.502;9.146;2022-12-05T07:22:13;26.77;;;15.65;;
24644;SDS011;12780;45.502;9.146;2022-12-05T07:24:39;25.92;;;14.68;;
24644;SDS011;12780;45.502;9.146;2022-12-05T07:27:04;25.67;;;14.00;;
24644;SDS011;12780;45.502;9.146;2022-12-05T07:29:30;24.92;;;14.60;;
24644;SDS011;12780;45.502;9.146;2022-12-05T07:31:56;24.02;;;13.55;;
24644;SDS011;12780;45.502;9.146;2022-12-05T07:34:21;24.63;;;14.88;;
24644;SDS011;12780;45.502;9.146;2022-12-05T07:36:47;26.40;;;13.52;;
24644;SDS011;12780;45.502;9.146;2022-12-05T07:39:12;27.45;;;15.57;;
24644;SDS011;12780;45.502;9.146;2022-12-05T07:41:38;26.35;;;14.15;;
24644;SDS011;12780;45.502;9.146;2022-12-05T07:44:04;23.17;;;13.65;;
24644;SDS011;12780;45.502;9.146;2022-12-05T07:46:29;22.85;;;13.75;;
24644;SDS011;12780;45.502;9.146;2022-12-05T07:48:55;23.50;;;12.38;;
24644;SDS011;12780;45.502;9.146;2022-12-05T07:51:21;22.08;;;12.85;;
24644;SDS011;12780;45.502;9.146;2022-12-05T07:53:46;24.67;;;12.73;;
24644;SDS011;12780;45.502;9.146;2022-12-05T07:56:13;23.17;;;12.48;;
24644;SDS011;12780;45.502;9.146;2022-12-05T07:58:41;23.17;;;12.80;;
24644;SDS011;12780;45.502;9.146;2022-12-05T08:01:11;23.95;;;12.55;;
24644;SDS011;12780;45.502;9.146;2022-12-05T08:03:39;24.17;;;12.60;;
24644;SDS011;12780;45.502;9.146;2022-12-05T08:06:16;24.73;;;13.18;;
24644;SDS011;12780;45.502;9.146;2022-12-05T08:08:43;26.08;;;13.50;;
24644;SDS011;12780;45.502;9.146;2022-12-05T08:11:11;23.23;;;12.90;;
24644;SDS011;12780;45.502;9.146;2022-12-05T08:13:38;21.98;;;12.80;;
24644;SDS011;12780;45.502;9.146;2022-12-05T08:16:06;26.25;;;14.02;;
24644;SDS011;12780;45.502;9.146;2022-12-05T08:18:34;27.10;;;14.25;;
24644;SDS011;12780;45.502;9.146;2022-12-05T08:21:04;28.50;;;14.73;;
24644;SDS011;12780;45.502;9.146;2022-12-05T08:23:31;30.13;;;13.77;;
24644;SDS011;12780;45.502;9.146;2022-12-05T08:26:01;29.98;;;14.35;;
24644;SDS011;12780;45.502;9.146;2022-12-05T08:28:29;26.00;;;13.25;;
24644;SDS011;12780;45.502;9.146;2022-12-05T08:30:55;29.90;;;14.27;;
24644;SDS011;12780;45.502;9.146;2022-12-05T08:33:20;31.38;;;14.88;;
24644;SDS011;12780;45.502;9.146;2022-12-05T08:35:46;30.95;;;14.35;;
24644;SDS011;12780;45.502;9.146;2022-12-05T08:38:11;31.65;;;14.00;;
24644;SDS011;12780;45.502;9.146;2022-12-05T08:40:37;32.45;;;15.50;;
24644;SDS011;12780;45.502;9.146;2022-12-05T08:43:02;31.00;;;14.73;;
24644;SDS011;12780;45.502;9.146;2022-12-05T08:45:28;31.30;;;15.18;;
24644;SDS011;12780;45.502;9.146;2022-12-05T08:47:53;29.77;;;13.65;;
24644;SDS011;12780;45.502;9.146;2022-12-05T08:50:19;32.13;;;13.88;;
24644;SDS011;12780;45.502;9.146;2022-12-05T08:52:45;30.02;;;13.43;;
24644;SDS011;12780;45.502;9.146;2022-12-05T08:55:10;30.00;;;14.25;;
24644;SDS011;12780;45.502;9.146;2022-12-05T08:57:36;31.63;;;14.98;;
24644;SDS011;12780;45.502;9.146;2022-12-05T09:00:02;31.35;;;14.63;;
24644;SDS011;12780;45.502;9.146;2022-12-05T09:02:29;31.08;;;14.27;;
24644;SDS011;12780;45.502;9.146;2022-12-05T09:04:55;31.15;;;13.05;;
24644;SDS011;12780;45.502;9.146;2022-12-05T09:07:21;33.25;;;14.10;;
24644;SDS011;12780;45.502;9.146;2022-12-05T09:09:46;30.48;;;13.88;;
24644;SDS011;12780;45.502;9.146;2022-12-05T09:12:12;24.73;;;11.88;;
24644;SDS011;12780;45.502;9.146;2022-12-05T09:14:38;28.98;;;11.32;;
24644;SDS011;12780;45.502;9.146;2022-12-05T09:17:04;23.20;;;10.75;;
24644;SDS011;12780;45.502;9.146;2022-12-05T09:19:31;23.33;;;10.38;;
24644;SDS011;12780;45.502;9.146;2022-12-05T09:21:56;19.60;;;9.02;;
24644;SDS011;12780;45.502;9.146;2022-12-05T09:24:22;19.38;;;8.98;;
24644;SDS011;12780;45.502;9.146;2022-12-05T09:26:48;18.67;;;9.27;;
24644;SDS011;12780;45.502;9.146;2022-12-05T09:29:14;16.08;;;8.02;;
24644;SDS011;12780;45.502;9.146;2022-12-05T09:31:39;15.75;;;8.13;;
24644;SDS011;12780;45.502;9.146;2022-12-05T09:34:07;16.83;;;8.02;;
24644;SDS011;12780;45.502;9.146;2022-12-05T09:36:33;16.35;;;8.38;;
24644;SDS011;12780;45.502;9.146;2022-12-05T09:38:59;17.17;;;8.45;;
24644;SDS011;12780;45.502;9.146;2022-12-05T09:47:28;27.08;;;11.70;;
24644;SDS011;12780;45.502;9.146;2022-12-05T09:55:34;30.60;;;13.20;;
24644;SDS011;12780;45.502;9.146;2022-12-05T10:00:44;32.42;;;13.40;;
24644;SDS011;12780;45.502;9.146;2022-12-05T10:05:47;31.58;;;12.20;;
24644;SDS011;12780;45.502;9.146;2022-12-05T10:08:31;29.77;;;13.75;;
24644;SDS011;12780;45.502;9.146;2022-12-05T10:11:56;33.22;;;13.63;;
24644;SDS011;12780;45.502;9.146;2022-12-05T10:16:48;31.90;;;13.15;;
24644;SDS011;12780;45.502;9.146;2022-12-05T10:19:38;36.63;;;13.45;;
24644;SDS011;12780;45.502;9.146;2022-12-05T10:22:15;29.63;;;12.88;;
24644;SDS011;12780;45.502;9.146;2022-12-05T10:24:58;35.03;;;13.63;;
24644;SDS011;12780;45.502;9.146;2022-12-05T10:27:29;33.75;;;13.38;;
24644;SDS011;12780;45.502;9.146;2022-12-05T10:35:21;34.45;;;14.45;;
24644;SDS011;12780;45.502;9.146;2022-12-05T10:37:56;33.08;;;13.15;;
24644;SDS011;12780;45.502;9.146;2022-12-05T10:40:25;38.78;;;14.32;;
24644;SDS011;12780;45.502;9.146;2022-12-05T10:42:54;33.38;;;13.63;;
24644;SDS011;12780;45.502;9.146;2022-12-05T10:45:20;36.17;;;14.07;;
24644;SDS011;12780;45.502;9.146;2022-12-05T10:47:47;39.13;;;15.18;;
24644;SDS011;12780;45.502;9.146;2022-12-05T10:50:18;34.03;;;14.30;;
24644;SDS011;12780;45.502;9.146;2022-12-05T10:52:47;34.38;;;14.23;;
24644;SDS011;12780;45.502;9.146;2022-12-05T10:55:15;31.02;;;13.57;;
24644;SDS011;12780;45.502;9.146;2022-12-05T10:57:42;32.53;;;14.07;;
24644;SDS011;12780;45.502;9.146;2022-12-05T11:00:15;37.78;;;14.20;;
24644;SDS011;12780;45.502;9.146;2022-12-05T11:02:46;33.05;;;13.60;;
24644;SDS011;12780;45.502;9.146;2022-12-05T11:05:12;33.90;;;13.27;;
24644;SDS011;12780;45.502;9.146;2022-12-05T11:07:45;32.40;;;13.60;;
24644;SDS011;12780;45.502;9.146;2022-12-05T11:10:26;32.55;;;14.13;;
24644;SDS011;12780;45.502;9.146;2022-12-05T11:12:59;30.73;;;12.77;;
24644;SDS011;12780;45.502;9.146;2022-12-05T11:15:27;32.58;;;13.25;;
24644;SDS011;12780;45.502;9.146;2022-12-05T11:17:55;33.28;;;13.18;;
24644;SDS011;12780;45.502;9.146;2022-12-05T11:22:49;25.73;;;11.15;;
24644;SDS011;12780;45.502;9.146;2022-12-05T11:25:33;22.45;;;11.30;;
24644;SDS011;12780;45.502;9.146;2022-12-05T11:28:21;23.25;;;10.73;;
24644;SDS011;12780;45.502;9.146;2022-12-05T11:36:43;23.55;;;11.88;;
24644;SDS011;12780;45.502;9.146;2022-12-05T11:39:14;27.50;;;12.45;;
24644;SDS011;12780;45.502;9.146;2022-12-05T11:55:58;26.35;;;12.38;;
24644;SDS011;12780;45.502;9.146;2022-12-05T12:06:46;28.90;;;12.80;;
24644;SDS011;12780;45.502;9.146;2022-12-05T12:20:54;27.70;;;12.38;;
24644;SDS011;12780;45.502;9.146;2022-12-05T12:23:44;29.10;;;12.85;;
24644;SDS011;12780;45.502;9.146;2022-12-05T12:26:13;23.40;;;12.18;;
24644;SDS011;12780;45.502;9.146;2022-12-05T12:29:00;26.63;;;12.90;;
24644;SDS011;12780;45.502;9.146;2022-12-05T12:31:41;26.02;;;12.38;;
24644;SDS011;12780;45.502;9.146;2022-12-05T12:42:35;27.98;;;13.45;;
24644;SDS011;12780;45.502;9.146;2022-12-05T12:50:34;25.10;;;12.35;;
24644;SDS011;12780;45.502;9.146;2022-12-05T12:53:11;28.60;;;13.50;;
24644;SDS011;12780;45.502;9.146;2022-12-05T13:11:57;27.17;;;13.27;;
24644;SDS011;12780;45.502;9.146;2022-12-05T13:14:27;32.28;;;13.68;;
24644;SDS011;12780;45.502;9.146;2022-12-05T13:16:55;23.75;;;12.77;;
24644;SDS011;12780;45.502;9.146;2022-12-05T13:19:27;27.77;;;13.70;;
24644;SDS011;12780;45.502;9.146;2022-12-05T13:22:01;25.48;;;13.00;;
24644;SDS011;12780;45.502;9.146;2022-12-05T13:24:27;26.85;;;12.95;;
24644;SDS011;12780;45.502;9.146;2022-12-05T13:26:55;26.52;;;12.25;;
24644;SDS011;12780;45.502;9.146;2022-12-05T13:32:29;23.40;;;11.70;;
24644;SDS011;12780;45.502;9.146;2022-12-05T13:35:01;29.88;;;14.45;;
24644;SDS011;12780;45.502;9.146;2022-12-05T13:37:44;26.95;;;13.18;;
24644;SDS011;12780;45.502;9.146;2022-12-05T13:43:20;26.65;;;13.27;;
24644;SDS011;12780;45.502;9.146;2022-12-05T13:48:26;23.38;;;11.75;;
24644;SDS011;12780;45.502;9.146;2022-12-05T13:51:04;22.63;;;12.88;;
24644;SDS011;12780;45.502;9.146;2022-12-05T13:53:44;25.73;;;13.30;;
24644;SDS011;12780;45.502;9.146;2022-12-05T13:58:43;25.77;;;12.80;;
24644;SDS011;12780;45.502;9.146;2022-12-05T14:06:54;28.13;;;13.18;;
24644;SDS011;12780;45.502;9.146;2022-12-05T14:15:22;24.98;;;12.35;;
24644;SDS011;12780;45.502;9.146;2022-12-05T14:22:40;24.17;;;11.63;;
24644;SDS011;12780;45.502;9.146;2022-12-05T14:31:10;36.90;;;15.15;;
24644;SDS011;12780;45.502;9.146;2022-12-05T14:42:21;28.08;;;13.77;;
24644;SDS011;12780;45.502;9.146;2022-12-05T14:44:55;32.40;;;13.93;;
24644;SDS011;12780;45.502;9.146;2022-12-05T14:47:30;28.05;;;14.20;;
24644;SDS011;12780;45.502;9.146;2022-12-05T14:49:59;31.85;;;14.52;;
24644;SDS011;12780;45.502;9.146;2022-12-05T14:52:26;37.60;;;14.70;;
24644;SDS011;12780;45.502;9.146;2022-12-05T14:54:59;31.05;;;14.15;;
24644;SDS011;12780;45.502;9.146;2022-12-05T14:57:29;36.28;;;14.63;;
24644;SDS011;12780;45.502;9.146;2022-12-05T15:00:03;30.52;;;14.57;;
24644;SDS011;12780;45.502;9.146;2022-12-05T15:02:32;32.17;;;14.68;;
24644;SDS011;12780;45.502;9.146;2022-12-05T15:05:04;30.20;;;14.02;;
24644;SDS011;12780;45.502;9.146;2022-12-05T15:07:50;33.97;;;14.43;;
24644;SDS011;12780;45.502;9.146;2022-12-05T15:12:50;33.67;;;14.63;;
24644;SDS011;12780;45.502;9.146;2022-12-05T15:15:29;30.83;;;14.00;;
24644;SDS011;12780;45.502;9.146;2022-12-05T15:21:13;33.05;;;13.93;;
24644;SDS011;12780;45.502;9.146;2022-12-05T15:26:48;31.35;;;13.50;;
24644;SDS011;12780;45.502;9.146;2022-12-05T15:39:50;31.42;;;14.20;;
24644;SDS011;12780;45.502;9.146;2022-12-05T15:42:18;29.38;;;14.10;;
24644;SDS011;12780;45.502;9.146;2022-12-05T15:44:45;40.17;;;16.35;;
24644;SDS011;12780;45.502;9.146;2022-12-05T15:47:18;31.25;;;15.23;;
24644;SDS011;12780;45.502;9.146;2022-12-05T15:49:45;33.10;;;15.57;;
24644;SDS011;12780;45.502;9.146;2022-12-05T15:52:25;29.75;;;14.65;;
24644;SDS011;12780;45.502;9.146;2022-12-05T15:55:02;31.85;;;14.85;;
24644;SDS011;12780;45.502;9.146;2022-12-05T15:57:36;27.83;;;13.55;;
24644;SDS011;12780;45.502;9.146;2022-12-05T16:00:14;29.33;;;14.23;;
24644;SDS011;12780;45.502;9.146;2022-12-05T16:05:24;31.77;;;15.38;;
24644;SDS011;12780;45.502;9.146;2022-12-05T16:08:02;32.42;;;14.73;;
24644;SDS011;12780;45.502;9.146;2022-12-05T16:10:30;32.83;;;16.48;;
24644;SDS011;12780;45.502;9.146;2022-12-05T16:12:55;32.00;;;15.73;;
24644;SDS011;12780;45.502;9.146;2022-12-05T16:15:28;27.73;;;14.88;;
24644;SDS011;12780;45.502;9.146;2022-12-05T16:17:55;34.00;;;15.30;;
24644;SDS011;12780;45.502;9.146;2022-12-05T16:22:55;30.85;;;15.50;;
24644;SDS011;12780;45.502;9.146;2022-12-05T16:25:28;32.20;;;14.82;;
24644;SDS011;12780;45.502;9.146;2022-12-05T16:30:32;45.45;;;19.98;;
24644;SDS011;12780;45.502;9.146;2022-12-05T16:33:00;36.67;;;18.38;;
24644;SDS011;12780;45.502;9.146;2022-12-05T16:35:33;32.63;;;16.83;;
24644;SDS011;12780;45.502;9.146;2022-12-05T16:38:05;41.88;;;18.55;;
24644;SDS011;12780;45.502;9.146;2022-12-05T16:40:40;37.38;;;18.27;;
24644;SDS011;12780;45.502;9.146;2022-12-05T16:48:39;44.80;;;20.73;;
24644;SDS011;12780;45.502;9.146;2022-12-05T16:53:41;43.05;;;20.17;;
24644;SDS011;12780;45.502;9.146;2022-12-05T16:56:25;44.97;;;19.70;;
24644;SDS011;12780;45.502;9.146;2022-12-05T16:58:54;41.78;;;19.67;;
24644;SDS011;12780;45.502;9.146;2022-12-05T17:01:24;43.88;;;20.42;;
24644;SDS011;12780;45.502;9.146;2022-12-05T17:03:51;44.47;;;20.70;;
24644;SDS011;12780;45.502;9.146;2022-12-05T17:06:20;47.28;;;21.67;;
24644;SDS011;12780;45.502;9.146;2022-12-05T17:08:48;48.42;;;20.25;;
24644;SDS011;12780;45.502;9.146;2022-12-05T17:11:15;42.70;;;20.42;;
24644;SDS011;12780;45.502;9.146;2022-12-05T17:13:44;39.03;;;19.73;;
24644;SDS011;12780;45.502;9.146;2022-12-05T17:16:12;47.25;;;20.92;;
24644;SDS011;12780;45.502;9.146;2022-12-05T17:18:38;44.72;;;20.90;;
24644;SDS011;12780;45.502;9.146;2022-12-05T17:21:04;45.38;;;21.08;;
24644;SDS011;12780;45.502;9.146;2022-12-05T17:23:30;45.83;;;21.77;;
24644;SDS011;12780;45.502;9.146;2022-12-05T17:25:57;44.85;;;20.83;;
24644;SDS011;12780;45.502;9.146;2022-12-05T17:28:23;48.00;;;21.27;;
24644;SDS011;12780;45.502;9.146;2022-12-05T17:30:49;51.28;;;23.65;;
24644;SDS011;12780;45.502;9.146;2022-12-05T17:33:16;57.45;;;25.48;;
24644;SDS011;12780;45.502;9.146;2022-12-05T17:35:43;48.40;;;24.20;;
24644;SDS011;12780;45.502;9.146;2022-12-05T17:38:09;51.50;;;24.00;;
24644;SDS011;12780;45.502;9.146;2022-12-05T17:40:35;49.25;;;23.55;;
24644;SDS011;12780;45.502;9.146;2022-12-05T17:43:02;48.85;;;23.60;;
24644;SDS011;12780;45.502;9.146;2022-12-05T17:45:28;55.38;;;26.00;;
24644;SDS011;12780;45.502;9.146;2022-12-05T17:47:54;48.70;;;24.40;;
24644;SDS011;12780;45.502;9.146;2022-12-05T17:50:21;54.30;;;25.63;;
24644;SDS011;12780;45.502;9.146;2022-12-05T17:52:48;49.08;;;24.17;;
24644;SDS011;12780;45.502;9.146;2022-12-05T17:55:15;49.63;;;22.67;;
24644;SDS011;12780;45.502;9.146;2022-12-05T17:57:43;49.85;;;23.67;;
24644;SDS011;12780;45.502;9.146;2022-12-05T18:00:09;60.75;;;31.50;;
24644;SDS011;12780;45.502;9.146;2022-12-05T18:02:37;58.00;;;28.73;;
24644;SDS011;12780;45.502;9.146;2022-12-05T18:05:03;72.57;;;35.60;;
24644;SDS011;12780;45.502;9.146;2022-12-05T18:07:29;57.45;;;30.25;;
24644;SDS011;12780;45.502;9.146;2022-12-05T18:09:54;52.80;;;23.83;;